createdAt,value
2022-09-16T00:02:29.706Z,724.03
2022-09-16T00:04:56.580Z,725.80
2022-09-16T00:15:32.085Z,725.47
2022-09-16T00:17:58.717Z,728.77
2022-09-16T00:20:25.383Z,727.50
2022-09-16T00:28:12.851Z,725.67
2022-09-16T00:38:51.185Z,727.80
2022-09-16T00:43:58.157Z,726.77
2022-09-16T00:51:49.866Z,727.77
2022-09-16T00:54:17.125Z,730.43
2022-09-16T00:56:46.744Z,727.30
2022-09-16T00:59:13.367Z,723.87
2022-09-16T01:07:01.906Z,725.67
2022-09-16T01:09:28.473Z,726.37
2022-09-16T01:11:55.128Z,728.00
2022-09-16T01:14:21.942Z,726.57
2022-09-16T01:16:48.621Z,727.27
2022-09-16T01:19:16.948Z,725.63
2022-09-16T01:29:46.415Z,729.23
2022-09-16T01:37:33.765Z,726.47
2022-09-16T01:40:00.426Z,723.83
2022-09-16T01:42:28.323Z,724.27
2022-09-16T01:50:18.683Z,728.37
2022-09-16T01:55:25.710Z,727.60
2022-09-16T01:57:52.360Z,722.93
2022-09-16T02:16:43.138Z,724.50
2022-09-16T02:21:59.244Z,726.73
2022-09-16T02:45:51.831Z,725.07
2022-09-16T02:50:58.655Z,725.13
2022-09-16T02:53:25.146Z,727.63
2022-09-16T02:55:51.792Z,727.77
2022-09-16T03:14:20.578Z,723.93
2022-09-16T03:16:47.170Z,727.93
2022-09-16T03:19:19.816Z,731.97
2022-09-16T03:21:49.932Z,722.00
2022-09-16T03:24:16.583Z,721.60
2022-09-16T03:32:03.806Z,721.90
2022-09-16T03:34:32.758Z,724.63
2022-09-16T03:36:59.241Z,725.67
2022-09-16T03:39:29.943Z,726.77
2022-09-16T03:44:36.804Z,725.57
2022-09-16T03:49:53.551Z,726.37
2022-09-16T03:52:20.084Z,722.57
2022-09-16T03:54:48.960Z,726.67
2022-09-16T03:57:18.851Z,727.70
2022-09-16T03:59:46.533Z,721.10
2022-09-16T04:02:16.049Z,725.83
2022-09-16T04:04:44.095Z,726.60
2022-09-16T04:07:13.701Z,723.30
2022-09-16T04:09:47.423Z,724.53
2022-09-16T04:12:14.776Z,724.17
2022-09-16T04:14:41.772Z,724.47
2022-09-16T04:17:08.411Z,724.17
2022-09-16T04:19:37.213Z,723.10
2022-09-16T04:22:03.731Z,724.40
2022-09-16T04:24:31.381Z,721.83
2022-09-16T04:26:58.073Z,724.47
2022-09-16T05:10:00.913Z,724.47
2022-09-16T05:12:27.325Z,727.63
2022-09-16T05:14:53.775Z,730.63
2022-09-16T05:17:49.376Z,728.20
2022-09-16T05:20:12.382Z,726.73
2022-09-16T05:22:38.834Z,730.73
2022-09-16T05:25:05.242Z,727.10
2022-09-16T05:27:31.654Z,725.17
2022-09-16T05:29:58.141Z,725.63
2022-09-16T05:32:24.569Z,731.70
2022-09-16T05:34:51.019Z,722.10
2022-09-16T05:37:17.422Z,729.73
2022-09-16T05:39:43.889Z,727.63
2022-09-16T05:42:10.306Z,724.73
2022-09-16T05:44:36.735Z,725.47
2022-09-16T05:47:03.157Z,727.87
2022-09-16T05:49:29.581Z,726.53
2022-09-16T05:51:56.052Z,729.67
2022-09-16T05:54:22.482Z,732.83
2022-09-16T05:56:48.870Z,727.17
2022-09-16T05:59:15.318Z,726.50
2022-09-16T06:01:41.815Z,735.03
2022-09-16T06:04:08.348Z,725.43
2022-09-16T06:06:34.788Z,726.67
2022-09-16T06:09:01.224Z,727.03
2022-09-16T06:11:27.639Z,727.13
2022-09-16T06:13:54.070Z,729.47
2022-09-16T06:16:20.499Z,732.93
2022-09-16T06:18:46.992Z,724.53
2022-09-16T06:21:13.430Z,730.00
2022-09-16T06:23:40.612Z,726.23
2022-09-16T06:26:07.072Z,725.53
2022-09-16T06:28:33.521Z,725.33
2022-09-16T06:31:00.053Z,732.13
2022-09-16T06:33:26.592Z,724.13
2022-09-16T06:35:53.007Z,726.70
2022-09-16T06:38:19.641Z,724.00
2022-09-16T06:40:46.081Z,728.00
2022-09-16T06:43:12.555Z,727.00
2022-09-16T06:48:32.296Z,766.33
2022-09-16T06:51:10.279Z,728.80
2022-09-16T07:47:36.140Z,731.03
2022-09-16T07:50:02.551Z,729.07
2022-09-16T07:52:28.942Z,735.73
2022-09-16T07:54:55.369Z,736.10
2022-09-16T07:57:21.859Z,727.73
2022-09-16T07:59:48.334Z,730.90
2022-09-16T08:02:14.842Z,730.43
2022-09-16T08:04:41.342Z,730.87
2022-09-16T08:07:07.756Z,729.10
2022-09-16T08:09:38.916Z,729.80
2022-09-16T08:12:07.587Z,728.53
2022-09-16T08:14:34.023Z,730.57
2022-09-16T08:17:00.481Z,730.33
2022-09-16T08:19:26.991Z,729.87
2022-09-16T08:21:53.425Z,737.90
2022-09-16T08:24:19.860Z,728.80
2022-09-16T08:26:46.358Z,730.47
2022-09-16T08:29:13.047Z,725.63
2022-09-16T08:31:39.755Z,735.00
2022-09-16T08:34:06.243Z,726.43
2022-09-16T08:36:32.662Z,729.33
2022-09-16T08:38:59.108Z,731.10
2022-09-16T08:41:25.572Z,721.70
2022-09-16T08:43:52.090Z,724.27
2022-09-16T08:46:20.736Z,725.90
2022-09-16T08:48:47.117Z,726.93
2022-09-16T08:51:13.552Z,724.03
2022-09-16T08:53:39.933Z,733.57
2022-09-16T08:56:06.343Z,726.57
2022-09-16T08:58:32.799Z,726.57
2022-09-16T09:00:59.261Z,732.30
2022-09-16T09:03:25.732Z,729.13
2022-09-16T09:05:52.144Z,729.50
2022-09-16T09:08:18.534Z,729.53
2022-09-16T09:10:45.037Z,726.47
2022-09-16T09:13:12.246Z,728.90
2022-09-16T09:15:39.273Z,728.10
2022-09-16T09:18:05.681Z,728.27
2022-09-16T09:20:32.124Z,724.43
2022-09-16T09:22:58.561Z,723.27
2022-09-16T09:25:25.021Z,731.03
2022-09-16T09:27:51.450Z,736.43
2022-09-16T09:30:17.881Z,740.03
2022-09-16T09:32:49.651Z,728.60
2022-09-16T09:35:16.627Z,726.93
2022-09-16T09:37:43.278Z,725.90
2022-09-16T09:40:09.781Z,727.70
2022-09-16T09:42:36.431Z,734.93
2022-09-16T09:45:02.938Z,729.17
2022-09-16T09:47:29.378Z,730.73
2022-09-16T09:49:55.833Z,728.67
2022-09-16T09:52:22.241Z,725.77
2022-09-16T09:54:48.652Z,733.13
2022-09-16T09:57:15.065Z,727.10
2022-09-16T09:59:41.493Z,725.10
2022-09-16T10:02:07.970Z,729.37
2022-09-16T10:04:34.426Z,725.63
2022-09-16T10:07:00.852Z,722.37
2022-09-16T10:09:27.314Z,731.17
2022-09-16T10:11:53.738Z,726.70
2022-09-16T10:14:20.199Z,726.30
2022-09-16T10:16:46.641Z,727.63
2022-09-16T10:19:13.064Z,725.53
2022-09-16T10:21:39.519Z,732.97
2022-09-16T10:24:05.934Z,731.10
2022-09-16T10:26:32.471Z,730.70
2022-09-16T10:28:58.872Z,727.30
2022-09-16T10:31:26.486Z,726.03
2022-09-16T10:33:53.686Z,729.50
2022-09-16T10:36:20.231Z,732.90
2022-09-16T10:38:46.679Z,725.83
2022-09-16T10:41:13.168Z,730.70
2022-09-16T10:43:39.598Z,728.40
2022-09-16T10:46:06.114Z,729.63
2022-09-16T10:48:32.531Z,728.13
2022-09-16T10:50:58.946Z,734.83
2022-09-16T10:53:25.360Z,723.33
2022-09-16T10:55:51.772Z,729.73
2022-09-16T10:58:18.166Z,726.50
2022-09-16T11:00:45.839Z,730.40
2022-09-16T11:03:17.171Z,736.33
2022-09-16T11:05:43.860Z,730.47
2022-09-16T11:08:10.331Z,736.50
2022-09-16T11:10:36.973Z,727.10
2022-09-16T11:13:04.036Z,730.33
2022-09-16T11:15:30.956Z,736.30
2022-09-16T11:17:57.750Z,731.70
2022-09-16T11:20:24.344Z,727.40
2022-09-16T11:22:51.060Z,727.97
2022-09-16T11:25:20.413Z,729.17
2022-09-16T11:27:47.083Z,727.03
2022-09-16T11:30:13.791Z,727.90
2022-09-16T11:32:40.708Z,728.07
2022-09-16T11:35:09.828Z,734.73
2022-09-16T11:37:36.427Z,731.70
2022-09-16T11:40:03.487Z,732.00
2022-09-16T11:42:30.284Z,730.33
2022-09-16T11:44:56.844Z,727.13
2022-09-16T11:47:23.247Z,733.47
2022-09-16T11:49:49.921Z,724.57
2022-09-16T11:52:16.410Z,731.53
2022-09-16T11:54:42.828Z,735.83
2022-09-16T11:57:10.887Z,727.10
2022-09-16T11:59:39.686Z,727.27
2022-09-16T12:02:06.170Z,726.97
2022-09-16T12:04:34.928Z,728.97
2022-09-16T12:07:04.097Z,727.77
2022-09-16T12:09:30.917Z,724.87
2022-09-16T12:11:57.451Z,728.13
2022-09-16T12:14:23.898Z,728.30
2022-09-16T12:16:50.473Z,729.80
2022-09-16T12:19:16.903Z,728.80
2022-09-16T12:21:43.338Z,733.83
2022-09-16T12:24:09.829Z,725.83
2022-09-16T12:26:36.250Z,731.77
2022-09-16T12:29:02.647Z,726.70
2022-09-16T12:31:29.133Z,729.50
2022-09-16T12:33:55.558Z,730.83
2022-09-16T12:36:23.858Z,725.87
2022-09-16T12:38:50.470Z,728.17
2022-09-16T12:41:16.933Z,728.27
2022-09-16T12:43:43.405Z,730.93
2022-09-16T12:46:09.979Z,737.20
2022-09-16T12:48:36.500Z,736.50
2022-09-16T12:51:02.990Z,729.63
2022-09-16T12:53:29.441Z,730.33
2022-09-16T12:55:55.876Z,738.63
2022-09-16T12:58:22.340Z,731.30
2022-09-16T13:00:48.772Z,731.57
2022-09-16T13:03:15.191Z,730.60
2022-09-16T13:05:41.723Z,732.47
2022-09-16T13:08:08.121Z,737.43
2022-09-16T13:10:54.403Z,731.70
2022-09-16T13:13:20.946Z,732.70
2022-09-16T13:15:47.450Z,734.70
2022-09-16T13:18:13.852Z,727.67
2022-09-16T13:20:40.316Z,732.07
2022-09-16T13:23:06.747Z,731.90
2022-09-16T13:25:33.204Z,738.13
2022-09-16T13:27:59.619Z,736.03
2022-09-16T13:30:26.039Z,740.43
2022-09-16T13:32:52.486Z,739.30
2022-09-16T13:35:18.947Z,733.60
2022-09-16T13:37:45.363Z,730.33
2022-09-16T13:40:11.827Z,733.70
2022-09-16T13:42:38.346Z,736.90
2022-09-16T13:45:04.748Z,738.37
2022-09-16T13:47:31.257Z,734.30
2022-09-16T13:49:57.715Z,731.57
2022-09-16T13:52:24.141Z,729.83
2022-09-16T13:55:09.305Z,736.77
2022-09-16T13:57:36.701Z,730.97
2022-09-16T14:00:03.111Z,730.43
2022-09-16T14:02:29.603Z,732.30
2022-09-16T14:04:56.119Z,730.57
2022-09-16T14:07:22.536Z,735.10
2022-09-16T14:09:54.137Z,738.70
2022-09-16T14:12:21.289Z,737.90
2022-09-16T14:14:48.386Z,733.77
2022-09-16T14:17:14.984Z,731.93
2022-09-16T14:19:41.391Z,741.57
2022-09-16T14:22:07.856Z,740.23
2022-09-16T14:24:34.276Z,733.43
2022-09-16T14:27:00.792Z,735.70
2022-09-16T14:29:27.266Z,731.50
2022-09-16T14:31:53.788Z,742.83
2022-09-16T14:34:20.222Z,731.53
2022-09-16T14:36:46.653Z,730.30
2022-09-16T14:39:13.130Z,730.07
2022-09-16T14:41:39.570Z,731.53
2022-09-16T14:44:05.989Z,733.57
2022-09-16T14:46:32.425Z,732.07
2022-09-16T14:48:58.858Z,730.37
2022-09-16T14:51:25.284Z,727.97
2022-09-16T14:54:11.225Z,738.27
2022-09-16T14:56:38.093Z,732.17
2022-09-16T14:59:04.562Z,734.73
2022-09-16T15:01:31.045Z,731.10
2022-09-16T15:03:57.527Z,734.93
2022-09-16T15:06:23.981Z,730.23
2022-09-16T15:08:50.467Z,738.57
2022-09-16T15:11:30.018Z,731.97
2022-09-16T15:14:02.888Z,732.53
2022-09-16T15:16:29.374Z,735.33
2022-09-16T15:18:55.779Z,729.17
2022-09-16T15:21:22.296Z,737.73
2022-09-16T15:23:48.757Z,729.87
2022-09-16T15:26:15.189Z,733.27
2022-09-16T15:28:41.611Z,734.27
2022-09-16T15:31:08.077Z,740.23
2022-09-16T15:33:34.759Z,732.73
2022-09-16T15:36:01.258Z,731.07
2022-09-16T15:38:27.692Z,738.23
2022-09-16T15:40:54.253Z,742.03
2022-09-16T15:43:20.682Z,738.10
2022-09-16T15:45:47.114Z,734.67
2022-09-16T15:48:13.500Z,742.40
2022-09-16T15:50:39.901Z,735.17
2022-09-16T15:53:06.297Z,739.13
2022-09-16T15:55:32.740Z,741.33
2022-09-16T15:57:59.143Z,734.93
2022-09-16T16:00:25.555Z,735.00
2022-09-16T16:02:52.116Z,736.00
2022-09-16T16:05:18.620Z,733.73
2022-09-16T16:07:45.042Z,739.20
2022-09-16T16:10:11.474Z,735.53
2022-09-16T16:12:37.889Z,736.83
2022-09-16T16:15:04.311Z,734.67
2022-09-16T16:17:30.725Z,735.93
2022-09-16T16:19:57.152Z,743.63
2022-09-16T16:22:24.113Z,734.47
2022-09-16T16:24:50.841Z,734.37
2022-09-16T16:27:17.243Z,743.23
2022-09-16T16:29:43.675Z,733.30
2022-09-16T16:32:10.212Z,734.43
2022-09-16T16:34:36.647Z,733.93
2022-09-16T16:37:03.073Z,737.83
2022-09-16T16:39:29.496Z,736.50
2022-09-16T16:41:55.946Z,735.60
2022-09-16T16:44:22.398Z,737.27
2022-09-16T16:46:48.864Z,736.10
2022-09-16T16:49:15.276Z,741.77
2022-09-16T16:51:41.716Z,735.27
2022-09-16T16:54:08.139Z,742.23
2022-09-16T16:56:34.597Z,734.63
2022-09-16T16:59:01.090Z,738.83
2022-09-16T17:01:27.567Z,735.33
2022-09-16T17:03:54.062Z,734.67
2022-09-16T17:06:20.498Z,735.83
2022-09-16T17:08:46.982Z,738.37
2022-09-16T17:11:13.455Z,741.83
2022-09-16T17:13:39.851Z,735.37
2022-09-16T17:16:06.344Z,737.10
2022-09-16T17:18:32.783Z,742.37
2022-09-16T17:20:59.192Z,740.97
2022-09-16T17:23:25.595Z,744.33
2022-09-16T17:25:52.002Z,743.53
2022-09-16T17:28:18.396Z,742.37
2022-09-16T17:30:44.874Z,738.07
2022-09-16T17:33:11.278Z,738.37
2022-09-16T17:35:37.695Z,735.30
2022-09-16T17:38:06.999Z,737.00
2022-09-16T17:40:33.884Z,739.73
2022-09-16T17:43:00.324Z,735.37
2022-09-16T17:45:26.752Z,740.73
2022-09-16T17:47:53.165Z,739.93
2022-09-16T17:50:22.843Z,740.23
2022-09-16T17:52:49.561Z,738.33
2022-09-16T17:55:15.971Z,734.37
2022-09-16T17:57:42.372Z,732.83
2022-09-16T18:00:08.791Z,743.67
2022-09-16T18:02:35.232Z,742.30
2022-09-16T18:05:01.776Z,740.17
2022-09-16T18:07:28.199Z,735.23
2022-09-16T18:09:54.598Z,738.13
2022-09-16T18:12:20.995Z,740.80
2022-09-16T18:14:47.399Z,742.50
2022-09-16T18:17:14.382Z,739.30
2022-09-16T18:19:40.802Z,745.17
2022-09-16T18:22:07.210Z,747.27
2022-09-16T18:24:33.597Z,741.77
2022-09-16T18:27:02.372Z,738.37
2022-09-16T18:29:29.074Z,739.60
2022-09-16T18:31:55.467Z,739.77
2022-09-16T18:34:21.902Z,731.00
2022-09-16T18:36:48.331Z,748.53
2022-09-16T18:39:14.745Z,752.13
2022-09-16T18:41:41.188Z,737.40
2022-09-16T18:44:07.674Z,746.90
2022-09-16T18:46:34.244Z,740.97
2022-09-16T18:49:00.718Z,745.67
2022-09-16T18:51:27.133Z,737.73
2022-09-16T18:53:53.530Z,743.00
2022-09-16T18:56:19.931Z,735.23
2022-09-16T18:59:03.722Z,743.80
2022-09-16T19:01:32.765Z,738.57
2022-09-16T19:03:59.266Z,742.33
2022-09-16T19:06:25.659Z,740.53
2022-09-16T19:08:52.082Z,740.47
2022-09-16T19:11:18.527Z,743.37
2022-09-16T19:13:44.915Z,739.27
2022-09-16T19:16:11.332Z,735.63
2022-09-16T19:18:37.718Z,738.17
2022-09-16T19:21:04.126Z,735.03
2022-09-16T19:23:30.561Z,737.87
2022-09-16T19:25:56.978Z,741.73
2022-09-16T19:28:23.404Z,746.13
2022-09-16T19:30:49.830Z,735.27
2022-09-16T19:33:16.248Z,738.03
2022-09-16T19:35:42.630Z,740.37
2022-09-16T19:38:09.039Z,736.77
2022-09-16T19:40:35.523Z,743.93
2022-09-16T19:43:01.992Z,738.43
2022-09-16T19:45:28.384Z,738.33
2022-09-16T19:47:54.809Z,736.70
2022-09-16T19:50:21.200Z,746.93
2022-09-16T19:52:47.611Z,736.67
2022-09-16T19:55:14.002Z,743.33
2022-09-16T19:57:40.424Z,744.23
2022-09-16T20:00:06.827Z,741.07
2022-09-16T20:02:33.281Z,740.63
2022-09-16T20:04:59.772Z,741.33
2022-09-16T20:07:26.164Z,738.03
2022-09-16T20:09:52.571Z,737.13
2022-09-16T20:12:18.999Z,735.57
2022-09-16T20:14:45.405Z,744.13
2022-09-16T20:17:11.822Z,736.73
2022-09-16T20:19:38.207Z,736.10
2022-09-16T20:22:04.688Z,742.80
2022-09-16T20:24:31.121Z,738.13
2022-09-16T20:26:57.563Z,740.70
2022-09-16T20:29:23.957Z,742.90
2022-09-16T20:31:50.507Z,738.30
2022-09-16T20:34:16.969Z,741.63
2022-09-16T20:36:43.383Z,740.63
2022-09-16T20:39:09.771Z,732.70
2022-09-16T20:41:36.195Z,737.00
2022-09-16T20:44:02.593Z,745.37
2022-09-16T20:46:29.003Z,742.53
2022-09-16T20:48:55.390Z,742.90
2022-09-16T20:51:21.793Z,736.17
2022-09-16T20:53:48.257Z,742.63
2022-09-16T20:56:14.708Z,738.33
2022-09-16T20:58:41.099Z,739.53
2022-09-16T21:01:07.560Z,734.80
2022-09-16T21:03:36.392Z,743.67
2022-09-16T21:06:03.044Z,744.23
2022-09-16T21:08:33.782Z,745.17
2022-09-16T21:11:02.695Z,744.63
2022-09-16T21:13:29.314Z,739.27
2022-09-16T21:15:55.750Z,737.30
2022-09-16T21:18:22.194Z,737.57
2022-09-16T21:20:48.581Z,735.80
2022-09-16T21:23:14.996Z,743.63
2022-09-16T21:25:41.394Z,735.13
2022-09-16T21:28:07.790Z,742.43
2022-09-16T21:30:34.182Z,735.37
2022-09-16T21:33:00.607Z,739.10
2022-09-16T21:35:30.695Z,735.73
2022-09-16T21:37:57.126Z,741.20
2022-09-16T21:40:23.572Z,740.80
2022-09-16T21:42:50.049Z,738.90
2022-09-16T21:45:16.439Z,740.63
2022-09-16T21:47:43.084Z,744.27
2022-09-16T21:50:09.493Z,738.00
2022-09-16T21:52:35.913Z,745.40
2022-09-16T21:55:04.312Z,746.10
2022-09-16T21:57:30.777Z,740.50
2022-09-16T21:59:57.179Z,736.93
2022-09-16T22:02:23.665Z,734.10
2022-09-16T22:04:50.119Z,742.90
2022-09-16T22:07:16.531Z,743.73
2022-09-16T22:09:42.976Z,740.87
2022-09-16T22:12:09.385Z,744.53
2022-09-16T22:14:35.775Z,738.67
2022-09-16T22:17:02.199Z,740.93
2022-09-16T22:19:28.605Z,742.17
2022-09-16T22:21:55.005Z,739.00
2022-09-16T22:24:21.527Z,737.97
2022-09-16T22:26:48.131Z,744.33
2022-09-16T22:29:22.714Z,744.43
2022-09-16T22:31:49.293Z,744.93
2022-09-16T22:34:15.767Z,745.50
2022-09-16T22:36:42.175Z,746.90
2022-09-16T22:39:08.558Z,737.17
2022-09-16T22:41:34.994Z,742.90
2022-09-16T22:44:01.395Z,736.73
2022-09-16T22:46:27.862Z,739.47
2022-09-16T22:48:54.309Z,741.50
2022-09-16T22:51:20.774Z,738.40
2022-09-16T22:53:47.162Z,739.40
2022-09-16T22:56:13.575Z,738.57
2022-09-16T22:58:39.978Z,745.03
2022-09-16T23:01:06.402Z,744.20
2022-09-16T23:03:32.818Z,739.47
2022-09-16T23:05:59.226Z,738.00
2022-09-16T23:08:25.622Z,744.27
2022-09-16T23:10:52.031Z,744.40
2022-09-16T23:13:18.471Z,743.53
2022-09-16T23:15:44.916Z,745.13
2022-09-16T23:18:11.354Z,737.07
2022-09-16T23:20:37.764Z,735.30
2022-09-16T23:23:04.200Z,743.53
2022-09-16T23:25:30.811Z,748.90
2022-09-16T23:27:57.207Z,737.57
2022-09-16T23:30:23.681Z,741.60
2022-09-16T23:32:50.198Z,741.60
2022-09-16T23:35:16.723Z,738.87
2022-09-16T23:37:43.171Z,741.30
2022-09-16T23:40:09.607Z,751.33
2022-09-16T23:42:36.076Z,739.73
2022-09-16T23:45:02.472Z,742.80
2022-09-16T23:47:29.122Z,738.93
2022-09-16T23:49:55.627Z,742.33
2022-09-16T23:52:22.117Z,736.97
2022-09-16T23:54:48.519Z,735.53
2022-09-16T23:57:14.920Z,738.00
2022-09-16T23:59:41.315Z,744.27
